ASIAQ
Weather Now
GREENLAND SURVEY
Sorting:
| Location |
Updated [WGT/WGST] |
Temperature [°C] |
Wind [m/s] |
Air pressure [hPa] |
Relative humidity [%] |
Precipitation [mm] |
| Present | Wind chill | Speed | Max |
| Qaanaaq | 04.05 09:00 | -8,2 | n/a | 0,1 ⇐ | 0,8 | 1032 | 45 | 0,0 |
| Kitsissut | 04.05 09:00 | -9,4 | -18,6 | 8,2 ⇘ | 10,3 | 1034 | 84 | n/a |
| Kitsissorsuit | 04.05 09:00 | -16,3 | n/a | n/a | n/a | 1028 | 85 | n/a |
| Upernavik | 04.05 09:00 | -13,8 | -19,7 | 2,7 ⇙ | 3,4 | 1016 | 86 | 0,0 |
| Qaarsut | 04.05 09:00 | n/a | n/a | 5,7 ⇐ | n/a | 1020 | n/a | n/a |
| Nuussuaq | 04.05 09:00 | -8,0 | -14,2 | 4,1 ⇐ | 6,2 | 1027 | 50 | n/a |
| Qeqertarsuaq | 04.05 09:00 | -7,8 | -14,4 | 4,7 ⇙ | 7,3 | 1028 | 51 | 0,0 |
| Ilulissat | 04.05 09:00 | -10,5 | -17,1 | 4,0 ⇙ | 8,4 | 1026 | 48 | 0,0 |
| Qasigiannguit | 04.05 09:00 | -8,0 | -14,8 | 4,9 ⇙ | 9,1 | 1026 | 46 | 0,0 |
| Aasiaat | 04.05 09:00 | -7,7 | -16,4 | 8,1 ⇙ | 13,4 | 1023 | 57 | 0,0 |
| Kangerlussuaq | 04.05 09:00 | -5,4 | -8,1 | 1,6 ⇐ | 2,9 | 1019 | 51 | n/a |
| Sisimiut | 04.05 09:00 | -2,3 | -6,4 | 3,1 ⇐ | n/a | 1021 | 29 | 0,0 |
| Maniitsoq | 04.05 09:00 | 1,9 | n/a | 0,9 ⇘ | 1,2 | 1015 | 82 | 0,0 |
| Sioralik | 04.05 09:00 | 1,3 | n/a | n/a | n/a | 1017 | 88 | n/a |
| Niaqornaa | n/a | n/a | n/a | n/a | n/a | n/a | n/a | n/a |
| Qeqertannguaq | 04.05 09:00 | 2,0 | -0,3 | 2,2 ⇖ | 2,9 | n/a | 99 | n/a |
| Kapisillit | 04.05 09:00 | 2,1 | -2,0 | 4,4 ⇐ | 6,5 | 1009 | 100 | 0,3 |
| Kuanninnguit | n/a | n/a | n/a | n/a | n/a | n/a | n/a | n/a |
| Nuuk City | 04.05 09:00 | 2,1 | -1,4 | 3,7 ⇙ | 6,3 | 1007 | 100 | 0,0 |
| Ukiiviit | 04.05 09:00 | 2,1 | -1,8 | 4,1 ⇐ | 4,6 | 1015 | 100 | n/a |
| Paamiut | 04.05 09:00 | 4,3 | n/a | 0,0 ⇓ | 0,0 | 1013 | 100 | 0,8 |
| Narsarsuaq | 04.05 09:00 | 4,1 | 2,9 | 1,5 ⇙ | n/a | 1015 | 82 | n/a |
| Narsaq | 04.05 09:00 | 2,7 | 1,1 | 1,7 ⇘ | 3,2 | 1016 | 97 | 0,0 |
| Nunarsuit | 04.05 09:00 | 3,9 | -1,0 | 7,2 ⇐ | 10,8 | 1014 | 98 | n/a |
| Upernaviarsuk | 04.05 09:00 | 2,4 | n/a | 0,8 ⇘ | 1,9 | 1018 | 100 | n/a |
| Qaqortoq | 04.05 09:00 | 2,9 | n/a | 0,8 ⇑ | 2,5 | 1012 | 91 | 0,0 |
| Angisoq | 04.05 09:00 | 2,4 | -1,4 | 4,1 ⇙ | 5,1 | 1017 | 100 | n/a |
| Prins Christian Sund | 04.05 09:00 | -2,3 | n/a | 1,0 ⇐ | 1,5 | 1008 | 99 | n/a |
| Nanortalik | 04.05 09:00 | 4,3 | 3,3 | 1,4 ⇗ | 2,4 | 1018 | 94 | n/a |
| Ikermiuarsuk | 04.05 09:00 | -0,6 | -9,7 | 17,0 ⇓ | 19,6 | 1015 | 100 | n/a |
| Ikermit | 04.05 09:00 | -0,2 | -5,8 | 6,2 ⇙ | 7,2 | 1012 | 48 | n/a |
| Kulusuk | 04.05 09:00 | -1,7 | -9,5 | 10,5 ⇐ | 13,8 | 1018 | 55 | n/a |
| Tasiilaq | 04.05 09:00 | 0,4 | -3,2 | 3,2 ⇖ | 4,8 | 1016 | 42 | 0,0 |
| Aputiteeq | 04.05 09:00 | -3,5 | -7,3 | 2,6 ⇙ | 6,2 | 1024 | 62 | n/a |
| Ittoqqortoormiit | 04.05 09:00 | -2,4 | -4,8 | 1,7 ⇐ | 3,3 | 1016 | 54 | n/a |
| Nerlerit Inaat | 04.05 09:00 | -1,8 | -9,1 | 9,0 ⇘ | 12,0 | 1024 | 57 | n/a |
| Daneborg | 04.05 09:00 | -3,9 | -13,0 | 12,0 ⇓ | 15,0 | 1023 | 68 | n/a |
| Zackenberg | 03.05 12:00 | n/a | n/a | 6,1 ⇘ | 9,8 | n/a | n/a | n/a |
| Danmarkshavn | 04.05 09:00 | -5,8 | n/a | n/a | 19,0 | 1026 | 80 | n/a |
| Henrik Krøyer Holme | 04.05 09:00 | -7,9 | -20,5 | 20,0 ⇓ | 25,0 | 1028 | 71 | n/a |
| Station Nord | 04.05 09:00 | -9,8 | -18,0 | 6,0 ⇓ | 8,0 | 1031 | 86 | n/a |
| Kap Morris Jesup | 04.05 09:00 | -10,2 | -20,9 | 11,0 ⇒ | 13,0 | 1037 | 68 | n/a |
Advanced version ⤻
Data source - Operated by - Disclaimer ▼